Terminal Aerodrome Forecast
Issued by NWS

Home | Current Version | Previous Version | Text Only | Print | Product List | Glossary On
Versions: 1 2 3 4 5 6 7 8 9 10 11 12 13
613
FTUS42 KTBW 260520
TAFLAL
TAF
KLAL 260520Z 2606/2706 VRB03KT P6SM BKN050 BKN080
     FM261600 27007KT P6SM SCT040 SCT100 BKN250
      AMD NOT SKED TIL 261100=

USA.gov is the U.S. government's official web portal to all federal, state and local government web resources and services.